Terminal Aerodrome Forecast
Issued by NWS

Home | Current Version | Previous Version | Text Only | Print | Product List | Glossary On
Versions: 1 2 3 4 5 6 7 8 9 10 11 12 13 14 15 16 17 18 19 20 21 22 23 24 25 26
000
FTUS41 KBUF 011700
TAFJHW
TAF
KJHW 011730Z 0118/0218 10005KT 3SM -SN BKN020 OVC030
     FM012000 10005KT 2SM -SN OVC015
     FM020000 10013KT 1/2SM SN OVC005
     FM021100 05012G22KT 1SM -SN BLSN OVC007
     FM021400 36013G23KT 2SM -SN BLSN OVC007
      AMD LTD TO CLD VIS AND WIND=

USA.gov is the U.S. government's official web portal to all federal, state and local government web resources and services.